Time;durP1;ratioP1;P1;durP2;ratioP2;P2;SDS_P1;SDS_P2;PMS_P1;PMS_P2;Temp;Humidity;BMP_temperature;BMP_pressure;BME280_temperature;BME280_humidity;BME280_pressure;Samples;Min_cycle;Max_cycle;Signal;HPM_P1;HPM_P2
2022/07/21 00:01:15;;;;;;;1.23;0.90;;;20.10;99.90;;;;;;4791335;29;20058;-92
2022/07/21 00:03:43;;;;;;;2.47;1.40;;;20.10;99.90;;;;;;4785998;29;20089;-93
2022/07/21 00:06:10;;;;;;;1.45;0.90;;;20.10;99.90;;;;;;4773671;29;20158;-93
2022/07/21 00:08:37;;;;;;;1.48;1.15;;;20.10;99.90;;;;;;4780473;29;20050;-95
2022/07/21 00:11:05;;;;;;;1.33;1.02;;;20.10;99.90;;;;;;4785826;29;20058;-94
2022/07/21 00:13:32;;;;;;;1.40;1.10;;;20.10;99.90;;;;;;4796392;29;20050;-91
2022/07/21 00:15:59;;;;;;;1.65;1.05;;;20.00;99.90;;;;;;4793429;29;20111;-93
2022/07/21 00:18:28;;;;;;;1.83;1.10;;;20.00;99.90;;;;;;4795994;29;20157;-92
2022/07/21 00:20:55;;;;;;;3.08;1.60;;;20.00;99.90;;;;;;4785029;29;20047;-92
2022/07/21 00:23:23;;;;;;;3.33;1.60;;;19.90;99.90;;;;;;4777112;29;20062;-93
2022/07/21 00:25:51;;;;;;;1.50;1.20;;;19.90;99.90;;;;;;4775752;29;20051;-91
2022/07/21 00:28:18;;;;;;;1.52;1.20;;;19.90;99.90;;;;;;4787236;29;20073;-91
2022/07/21 00:30:45;;;;;;;0.85;0.75;;;20.00;99.90;;;;;;4802836;29;20054;-90
2022/07/21 00:33:12;;;;;;;1.27;1.05;;;20.00;99.90;;;;;;4782915;29;20126;-91
2022/07/21 00:35:40;;;;;;;1.10;1.00;;;19.90;99.90;;;;;;4795873;29;20387;-91
2022/07/21 00:38:10;;;;;;;1.92;1.25;;;19.70;99.90;;;;;;4787768;29;20050;-90
2022/07/21 00:40:38;;;;;;;1.45;1.10;;;19.50;99.90;;;;;;4799129;29;20076;-90
2022/07/21 00:43:05;;;;;;;2.20;1.60;;;19.30;99.90;;;;;;4794365;29;20076;-90
2022/07/21 00:45:33;;;;;;;1.52;1.30;;;19.20;99.90;;;;;;4790637;29;20141;-89
2022/07/21 00:48:00;;;;;;;4.00;2.00;;;19.10;99.90;;;;;;4785796;29;20066;-91
2022/07/21 00:50:28;;;;;;;2.00;1.40;;;19.00;99.90;;;;;;4783306;29;20065;-92
2022/07/21 00:52:55;;;;;;;2.75;1.70;;;19.00;99.90;;;;;;4777069;29;20730;-92
2022/07/21 00:55:22;;;;;;;2.25;1.55;;;18.90;99.90;;;;;;4790636;29;20071;-89
2022/07/21 00:57:50;;;;;;;1.27;1.10;;;19.00;99.90;;;;;;4784413;29;20100;-91
2022/07/21 01:00:19;;;;;;;2.15;1.60;;;19.00;99.90;;;;;;4788154;29;20076;-90
2022/07/21 01:02:46;;;;;;;1.83;1.10;;;19.00;99.90;;;;;;4784416;29;20108;-91
2022/07/21 01:05:17;;;;;;;2.45;1.55;;;19.00;99.90;;;;;;4763327;29;20054;-90
2022/07/21 01:07:48;;;;;;;1.77;1.30;;;19.00;99.90;;;;;;4775428;29;20058;-93
2022/07/21 01:10:16;;;;;;;1.48;1.00;;;19.00;99.90;;;;;;4799283;29;20050;-94
2022/07/21 01:12:42;;;;;;;1.70;1.15;;;19.00;99.90;;;;;;4780514;29;20054;-90
2022/07/21 01:15:11;;;;;;;1.23;0.88;;;19.00;99.90;;;;;;4789358;29;20639;-91
2022/07/21 01:17:38;;;;;;;2.17;1.30;;;19.10;99.90;;;;;;4778314;29;20092;-91
2022/07/21 01:20:07;;;;;;;1.95;1.30;;;19.10;99.90;;;;;;4777878;29;20061;-90
2022/07/21 01:22:35;;;;;;;1.65;1.10;;;19.10;99.90;;;;;;4787709;29;20066;-90
2022/07/21 01:25:03;;;;;;;1.33;1.00;;;19.00;99.90;;;;;;4787912;29;20153;-90
2022/07/21 01:27:30;;;;;;;1.05;0.95;;;19.10;99.90;;;;;;4785816;29;20146;-90
2022/07/21 01:29:57;;;;;;;2.22;1.40;;;19.00;99.90;;;;;;4794066;29;20067;-90
2022/07/21 01:37:45;;;;;;;1.10;0.80;;;19.00;99.90;;;;;;5212734;24;20050;-87
2022/07/21 01:42:58;;;;;;;2.05;1.20;;;19.00;99.90;;;;;;4797307;29;20150;-87
2022/07/21 01:45:26;;;;;;;2.85;1.40;;;19.00;99.90;;;;;;4773734;29;20050;-87
2022/07/21 01:47:52;;;;;;;2.03;1.40;;;18.90;99.90;;;;;;4766929;29;20143;-87
2022/07/21 01:50:21;;;;;;;1.85;1.40;;;18.80;99.90;;;;;;4787831;29;20057;-87
2022/07/21 01:52:47;;;;;;;2.65;1.60;;;18.90;99.90;;;;;;4801922;29;20058;-86
2022/07/21 01:55:14;;;;;;;1.67;1.23;;;18.90;99.90;;;;;;4773525;29;20046;-87
2022/07/21 01:57:41;;;;;;;1.23;0.88;;;18.80;99.90;;;;;;4789140;29;20054;-88
2022/07/21 02:00:09;;;;;;;1.15;0.80;;;18.80;99.90;;;;;;4787235;29;20085;-87
2022/07/21 02:02:36;;;;;;;1.08;0.98;;;18.80;99.90;;;;;;4771568;29;20293;-87
2022/07/21 02:05:03;;;;;;;0.93;0.82;;;18.70;99.90;;;;;;4774951;29;20127;-86
2022/07/21 02:07:31;;;;;;;0.88;0.63;;;18.70;99.90;;;;;;4770016;29;20050;-87
2022/07/21 02:09:59;;;;;;;0.65;0.60;;;18.80;99.90;;;;;;4781282;29;20058;-87
2022/07/21 02:12:26;;;;;;;1.42;0.85;;;18.80;99.90;;;;;;4785457;29;20133;-88
2022/07/21 02:14:53;;;;;;;0.80;0.55;;;18.80;99.90;;;;;;4791918;29;20059;-88
2022/07/21 02:17:20;;;;;;;0.95;0.70;;;18.80;99.90;;;;;;4770851;29;20070;-87
2022/07/21 02:19:47;;;;;;;1.10;0.75;;;18.80;99.90;;;;;;4772180;29;20081;-88
2022/07/21 02:22:14;;;;;;;1.05;0.80;;;18.80;99.90;;;;;;4771669;29;20187;-88
2022/07/21 02:24:41;;;;;;;1.75;0.60;;;18.70;99.90;;;;;;4771890;29;20118;-87
2022/07/21 02:27:08;;;;;;;0.57;0.57;;;18.70;99.90;;;;;;4783501;29;20051;-86
2022/07/21 02:29:35;;;;;;;0.60;0.60;;;18.70;99.90;;;;;;4768999;29;20074;-88
2022/07/21 02:32:02;;;;;;;1.00;0.70;;;18.70;99.90;;;;;;4768293;29;20108;-88
2022/07/21 02:34:29;;;;;;;1.73;0.65;;;18.70;99.90;;;;;;4779881;29;20466;-88
2022/07/21 02:36:56;;;;;;;1.58;1.00;;;18.70;99.90;;;;;;4770729;29;20046;-88
2022/07/21 02:39:23;;;;;;;0.75;0.60;;;18.70;99.90;;;;;;4770241;29;20070;-88
2022/07/21 02:41:50;;;;;;;1.25;0.85;;;18.70;99.90;;;;;;4755273;29;20063;-88
2022/07/21 02:44:17;;;;;;;0.50;0.43;;;18.70;99.90;;;;;;4771864;29;20054;-87
2022/07/21 02:46:44;;;;;;;0.80;0.63;;;18.70;99.90;;;;;;4756018;29;20078;-87
2022/07/21 02:49:11;;;;;;;0.70;0.60;;;18.80;99.90;;;;;;4766587;29;20058;-88
2022/07/21 02:51:38;;;;;;;0.98;0.90;;;18.70;99.90;;;;;;4761943;29;20063;-87
2022/07/21 02:54:05;;;;;;;0.65;0.63;;;18.70;99.90;;;;;;4796662;29;20061;-87
2022/07/21 02:56:32;;;;;;;1.17;0.80;;;18.70;99.90;;;;;;4770676;29;20362;-89
2022/07/21 02:58:59;;;;;;;0.85;0.82;;;18.70;99.90;;;;;;4797007;29;20121;-88
2022/07/21 03:01:26;;;;;;;1.08;0.90;;;18.70;99.90;;;;;;4772452;29;20526;-87
2022/07/21 03:03:54;;;;;;;0.98;0.75;;;18.70;99.90;;;;;;4799498;29;20099;-87
2022/07/21 03:06:21;;;;;;;1.27;1.10;;;18.70;99.90;;;;;;4768687;29;20107;-87
2022/07/21 03:08:48;;;;;;;1.50;0.70;;;18.70;99.90;;;;;;4773973;29;20054;-87
2022/07/21 03:11:15;;;;;;;1.38;0.80;;;18.70;99.90;;;;;;4776511;29;20049;-87
2022/07/21 03:13:42;;;;;;;0.70;0.60;;;18.70;99.90;;;;;;4778058;29;20398;-87
2022/07/21 03:16:09;;;;;;;0.65;0.55;;;18.80;99.90;;;;;;4770444;29;20246;-87
2022/07/21 03:18:36;;;;;;;0.73;0.60;;;18.70;99.90;;;;;;4764149;29;20065;-87
2022/07/21 03:21:03;;;;;;;0.80;0.70;;;18.70;99.90;;;;;;4764695;29;20055;-86
2022/07/21 03:23:30;;;;;;;1.13;0.80;;;18.70;99.90;;;;;;4786686;29;20363;-88
2022/07/21 03:25:57;;;;;;;0.82;0.70;;;18.70;99.90;;;;;;4793023;29;20401;-86
2022/07/21 03:28:24;;;;;;;0.70;0.57;;;18.70;99.90;;;;;;4793007;29;20072;-86
2022/07/21 03:30:51;;;;;;;2.00;0.85;;;18.70;99.90;;;;;;4769956;29;20051;-87
2022/07/21 03:33:18;;;;;;;2.13;1.30;;;18.60;99.90;;;;;;4790802;29;20463;-87
2022/07/21 03:35:45;;;;;;;0.98;0.70;;;18.60;99.90;;;;;;4780616;29;20059;-87
2022/07/21 03:38:13;;;;;;;0.90;0.70;;;18.50;99.90;;;;;;4769644;29;20154;-87
2022/07/21 03:40:40;;;;;;;0.70;0.52;;;18.60;99.90;;;;;;4761714;29;20396;-87
2022/07/21 03:43:07;;;;;;;1.73;1.00;;;18.60;99.90;;;;;;4782539;29;20050;-87
2022/07/21 03:45:35;;;;;;;0.80;0.77;;;18.50;99.90;;;;;;4776804;29;20050;-86
2022/07/21 03:48:03;;;;;;;1.10;0.88;;;18.50;99.90;;;;;;4779130;29;20123;-87
2022/07/21 03:50:31;;;;;;;1.40;1.00;;;18.50;99.90;;;;;;4774514;29;20104;-87
2022/07/21 03:52:58;;;;;;;1.45;1.05;;;18.40;99.90;;;;;;4769016;29;20058;-87
2022/07/21 03:55:25;;;;;;;1.60;1.00;;;18.40;99.90;;;;;;4774717;29;20051;-88
2022/07/21 03:57:54;;;;;;;1.45;1.23;;;18.40;99.90;;;;;;4796287;29;20058;-88
2022/07/21 04:00:26;;;;;;;2.85;1.80;;;18.40;99.90;;;;;;4779399;29;20133;-86
2022/07/21 04:02:54;;;;;;;1.00;0.90;;;18.30;99.90;;;;;;4770807;29;20595;-86
2022/07/21 04:05:21;;;;;;;1.05;0.95;;;18.30;99.90;;;;;;4787999;29;20050;-87
2022/07/21 04:07:49;;;;;;;1.50;1.02;;;18.40;99.90;;;;;;4777270;29;20126;-87
2022/07/21 04:10:18;;;;;;;1.20;0.82;;;18.40;99.90;;;;;;4775178;29;20107;-88
2022/07/21 04:12:46;;;;;;;1.13;0.85;;;18.40;99.90;;;;;;4780163;29;20145;-89
2022/07/21 04:15:13;;;;;;;1.35;0.80;;;18.40;99.90;;;;;;4780313;29;20059;-88
2022/07/21 04:17:40;;;;;;;0.98;0.80;;;18.40;99.90;;;;;;4771311;29;20055;-87
2022/07/21 04:20:08;;;;;;;1.00;0.80;;;18.40;99.90;;;;;;4774742;29;20051;-90
2022/07/21 04:22:35;;;;;;;1.13;0.73;;;18.50;99.90;;;;;;4778515;29;20491;-89
2022/07/21 04:25:04;;;;;;;0.73;0.63;;;18.50;99.90;;;;;;4764190;29;20059;-86
2022/07/21 04:27:31;;;;;;;0.80;0.65;;;18.50;99.90;;;;;;4767093;29;20069;-87
2022/07/21 04:29:58;;;;;;;0.63;0.57;;;18.50;99.90;;;;;;4778511;29;20814;-86
2022/07/21 04:32:25;;;;;;;0.80;0.60;;;18.50;99.90;;;;;;4776446;29;20091;-87
2022/07/21 04:34:52;;;;;;;0.60;0.60;;;18.60;99.90;;;;;;4777553;29;20058;-87
2022/07/21 04:37:19;;;;;;;0.73;0.65;;;18.50;99.90;;;;;;4774352;29;20201;-87
2022/07/21 04:39:46;;;;;;;0.60;0.45;;;18.50;99.90;;;;;;4760862;29;20518;-87
2022/07/21 04:42:19;;;;;;;0.50;0.50;;;18.40;99.90;;;;;;4765712;29;20511;-85
2022/07/21 04:44:47;;;;;;;0.60;0.57;;;18.40;99.90;;;;;;4790485;29;20064;-88
2022/07/21 04:47:33;;;;;;;0.50;0.50;;;18.40;99.90;;;;;;4776918;29;20050;-92
2022/07/21 04:50:36;;;;;;;0.50;0.45;;;18.40;99.90;;;;;;4796549;29;20058;-92
2022/07/21 04:57:58;;;;;;;;;;;;;;;;;;;;;
2022/07/21 05:05:05;;;;;;;;;;;18.40;99.90;;;;;;4792720;29;20061;-94
2022/07/21 05:08:52;;;;;;;;;;;;;;;;;;;;;
2022/07/21 05:16:21;;;;;;;;;;;;;;;;;;;;;
2022/07/21 05:19:51;;;;;;;0.47;0.38;;;18.50;99.90;;;;;;4683514;30;20055;-92
2022/07/21 05:22:42;;;;;;;0.77;0.50;;;18.60;99.90;;;;;;4692590;30;20075;-88
2022/07/21 05:25:09;;;;;;;0.73;0.43;;;18.60;99.90;;;;;;4685967;30;20601;-89
2022/07/21 05:27:36;;;;;;;0.65;0.47;;;18.70;99.90;;;;;;4745554;29;20055;-90
2022/07/21 05:30:04;;;;;;;1.42;0.70;;;18.70;99.90;;;;;;4775577;29;20141;-90
2022/07/21 05:32:31;;;;;;;0.98;0.45;;;18.80;99.90;;;;;;4787878;29;20058;-90
2022/07/21 05:35:12;;;;;;;1.25;0.70;;;18.90;99.90;;;;;;4778602;29;20070;-90
2022/07/21 05:37:40;;;;;;;0.43;0.43;;;18.90;99.90;;;;;;4771799;29;20071;-90
2022/07/21 05:40:09;;;;;;;0.70;0.60;;;18.90;99.90;;;;;;4774030;29;20135;-90
2022/07/21 05:42:45;;;;;;;0.60;0.43;;;19.00;99.90;;;;;;4799134;29;20110;-91
2022/07/21 05:45:16;;;;;;;1.58;0.75;;;19.00;99.90;;;;;;4792398;29;20097;-91
2022/07/21 05:47:55;;;;;;;0.57;0.50;;;19.10;99.90;;;;;;4786927;29;20094;-92
2022/07/21 05:50:36;;;;;;;0.40;0.40;;;19.10;99.90;;;;;;4775055;29;20050;-91
2022/07/21 05:53:09;;;;;;;0.40;0.30;;;19.20;99.90;;;;;;4778008;29;20054;-89
2022/07/21 05:55:42;;;;;;;0.45;0.45;;;19.20;99.90;;;;;;4788506;29;20140;-90
2022/07/21 05:58:12;;;;;;;0.85;0.57;;;19.30;99.90;;;;;;4791317;29;20095;-91
2022/07/21 06:00:39;;;;;;;0.95;0.40;;;19.30;99.90;;;;;;4778211;29;20131;-91
2022/07/21 06:03:17;;;;;;;0.52;0.50;;;19.40;99.90;;;;;;4777775;29;20412;-91
2022/07/21 06:05:45;;;;;;;0.75;0.70;;;19.50;99.90;;;;;;4786572;29;20067;-88
2022/07/21 06:08:33;;;;;;;0.40;0.40;;;19.50;99.90;;;;;;4780771;29;20050;-90
2022/07/21 06:11:02;;;;;;;1.55;0.73;;;19.50;99.90;;;;;;4786420;29;20106;-90
2022/07/21 06:13:29;;;;;;;1.13;0.50;;;19.50;99.90;;;;;;4777370;29;20123;-90
2022/07/21 06:16:08;;;;;;;1.63;0.88;;;19.60;99.90;;;;;;4775085;29;20426;-92
2022/07/21 06:18:44;;;;;;;0.52;0.50;;;19.70;99.90;;;;;;4778204;29;20084;-90
2022/07/21 06:21:12;;;;;;;1.00;0.60;;;19.80;99.90;;;;;;4774703;29;20080;-91
2022/07/21 06:23:40;;;;;;;1.30;0.80;;;19.80;99.90;;;;;;4776348;29;20063;-91
2022/07/21 06:26:09;;;;;;;1.08;0.70;;;19.80;99.90;;;;;;4769715;29;20055;-92
2022/07/21 06:28:36;;;;;;;0.90;0.68;;;19.80;99.90;;;;;;4767102;29;20087;-91
2022/07/21 06:31:06;;;;;;;0.80;0.60;;;19.90;99.90;;;;;;4780222;29;20059;-90
2022/07/21 06:33:33;;;;;;;0.65;0.60;;;19.80;99.90;;;;;;4772194;29;20073;-91
2022/07/21 06:36:03;;;;;;;1.00;0.80;;;19.80;99.90;;;;;;4772118;29;20177;-92
2022/07/21 06:38:36;;;;;;;1.80;0.70;;;19.80;99.90;;;;;;4781792;29;20058;-90
2022/07/21 06:41:07;;;;;;;1.35;0.70;;;19.90;99.90;;;;;;4778099;29;20260;-94
2022/07/21 06:43:34;;;;;;;1.85;0.63;;;20.00;99.90;;;;;;4788122;29;20544;-91
2022/07/21 06:46:01;;;;;;;1.27;0.75;;;19.90;99.90;;;;;;4774936;29;20461;-91
2022/07/21 06:48:34;;;;;;;1.05;0.50;;;19.90;99.90;;;;;;4768000;29;20474;-91
2022/07/21 06:51:06;;;;;;;0.40;0.40;;;19.80;99.90;;;;;;4776862;29;20059;-91
2022/07/21 06:53:38;;;;;;;0.57;0.57;;;19.90;99.90;;;;;;4776645;29;20081;-91
2022/07/21 06:56:06;;;;;;;0.82;0.60;;;19.90;99.90;;;;;;4794316;29;20077;-90
2022/07/21 06:58:34;;;;;;;0.60;0.43;;;20.00;99.90;;;;;;4793597;29;20118;-91
2022/07/21 07:01:06;;;;;;;0.47;0.40;;;20.00;99.90;;;;;;4786426;29;20052;-91
2022/07/21 07:03:37;;;;;;;1.33;0.40;;;20.00;99.90;;;;;;4778782;29;20180;-90
2022/07/21 07:06:04;;;;;;;0.60;0.60;;;20.10;99.90;;;;;;4776577;29;20085;-92
2022/07/21 07:08:32;;;;;;;1.98;0.60;;;20.10;99.90;;;;;;4779887;29;20531;-89
2022/07/21 07:11:01;;;;;;;1.00;0.70;;;20.20;99.90;;;;;;4775707;29;20063;-90
2022/07/21 07:13:28;;;;;;;0.50;0.50;;;20.20;99.90;;;;;;4767131;29;20054;-90
2022/07/21 07:16:15;;;;;;;1.33;0.95;;;20.30;99.90;;;;;;4778542;29;20127;-89
2022/07/21 07:18:45;;;;;;;1.35;0.85;;;20.30;99.90;;;;;;4775626;29;20061;-90
2022/07/21 07:21:12;;;;;;;2.22;0.88;;;20.30;99.90;;;;;;4789024;29;20073;-89
2022/07/21 07:23:39;;;;;;;1.25;0.73;;;20.40;99.90;;;;;;4790328;29;20058;-89
2022/07/21 07:26:07;;;;;;;0.75;0.73;;;20.50;99.90;;;;;;4794090;29;20510;-89
2022/07/21 07:28:34;;;;;;;1.42;0.70;;;20.50;99.90;;;;;;4797787;29;20490;-89
2022/07/21 07:31:04;;;;;;;1.27;0.73;;;20.60;99.90;;;;;;4775924;29;20118;-91
2022/07/21 07:33:38;;;;;;;1.45;0.85;;;20.70;99.90;;;;;;4793494;29;20054;-93
2022/07/21 07:36:12;;;;;;;1.63;1.10;;;20.80;99.90;;;;;;4797081;29;20066;-95
2022/07/21 07:38:43;;;;;;;1.35;0.90;;;20.80;99.90;;;;;;4771742;29;20101;-91
2022/07/21 07:41:11;;;;;;;2.03;1.30;;;20.80;99.90;;;;;;4816933;29;20396;-92
2022/07/21 07:43:39;;;;;;;1.25;1.00;;;20.80;99.90;;;;;;4806869;29;20163;-93
2022/07/21 07:46:07;;;;;;;1.23;1.10;;;20.80;99.90;;;;;;4793583;29;20042;-92
2022/07/21 07:48:36;;;;;;;1.50;1.00;;;20.80;99.90;;;;;;4795201;29;20059;-91
2022/07/21 07:51:06;;;;;;;3.13;1.38;;;20.90;99.90;;;;;;4787789;29;20051;-90
2022/07/21 07:53:33;;;;;;;1.40;1.30;;;20.90;99.90;;;;;;4780555;29;20065;-91
2022/07/21 07:56:04;;;;;;;1.90;0.98;;;20.80;99.90;;;;;;4779995;29;20054;-91
2022/07/21 07:58:31;;;;;;;1.23;0.90;;;20.80;99.90;;;;;;4781513;29;20070;-91
2022/07/21 08:00:58;;;;;;;2.85;1.05;;;20.90;99.90;;;;;;4813012;29;20072;-91
2022/07/21 08:03:34;;;;;;;1.20;0.90;;;20.80;99.90;;;;;;4807055;29;20070;-92
2022/07/21 08:06:04;;;;;;;1.30;1.20;;;20.80;99.90;;;;;;4813470;29;20391;-90
2022/07/21 08:08:35;;;;;;;1.90;1.13;;;20.90;99.90;;;;;;4812992;29;20083;-91
2022/07/21 08:11:02;;;;;;;1.23;0.93;;;21.10;99.90;;;;;;4799505;29;20054;-92
2022/07/21 08:13:32;;;;;;;1.30;1.13;;;21.20;99.90;;;;;;4798940;29;20609;-92
2022/07/21 08:16:00;;;;;;;1.60;1.00;;;21.40;99.90;;;;;;4796543;29;20054;-91
2022/07/21 08:18:27;;;;;;;1.20;0.90;;;21.40;99.90;;;;;;4785066;29;20122;-90
2022/07/21 08:20:59;;;;;;;1.20;0.90;;;21.40;99.90;;;;;;4805057;29;20082;-91
2022/07/21 08:23:27;;;;;;;2.17;1.13;;;21.50;99.90;;;;;;4803492;29;20503;-91
2022/07/21 08:25:58;;;;;;;1.50;1.00;;;21.60;99.90;;;;;;4761372;29;20531;-92
2022/07/21 08:28:29;;;;;;;1.83;1.30;;;21.70;99.90;;;;;;4767589;29;20340;-92
2022/07/21 08:30:57;;;;;;;1.75;1.30;;;21.80;99.90;;;;;;4779553;29;20406;-93
2022/07/21 08:33:25;;;;;;;1.75;1.27;;;21.90;99.90;;;;;;4778355;29;20054;-93
2022/07/21 08:35:53;;;;;;;1.75;1.00;;;21.90;99.90;;;;;;4777095;29;20224;-91
2022/07/21 08:38:21;;;;;;;1.17;0.82;;;22.00;99.90;;;;;;4793350;29;20082;-91
2022/07/21 08:40:49;;;;;;;0.63;0.63;;;22.20;99.90;;;;;;4761531;29;20058;-92
2022/07/21 08:43:16;;;;;;;1.17;0.80;;;22.50;99.90;;;;;;4777066;29;20160;-93
2022/07/21 08:45:46;;;;;;;1.13;0.70;;;22.60;99.90;;;;;;4786679;29;20055;-92
2022/07/21 08:48:18;;;;;;;0.88;0.80;;;22.80;99.90;;;;;;4791109;29;20051;-92
2022/07/21 08:50:46;;;;;;;1.13;0.70;;;23.00;99.90;;;;;;4776148;29;20055;-92
2022/07/21 08:53:13;;;;;;;0.80;0.70;;;23.10;99.90;;;;;;4784389;29;20129;-91
2022/07/21 08:55:40;;;;;;;1.13;0.77;;;23.40;99.90;;;;;;4778218;29;20138;-90
2022/07/21 08:58:09;;;;;;;1.02;0.82;;;23.50;99.90;;;;;;4779429;29;20058;-91
2022/07/21 09:00:39;;;;;;;1.98;1.20;;;23.40;99.90;;;;;;4774708;29;20059;-94
2022/07/21 09:03:16;;;;;;;1.70;1.00;;;23.40;99.90;;;;;;4774495;29;20062;-91
2022/07/21 09:06:00;;;;;;;0.80;0.70;;;23.30;99.90;;;;;;4775288;29;20161;-92
2022/07/21 09:08:40;;;;;;;2.10;0.98;;;23.40;99.90;;;;;;4781475;29;20050;-90
2022/07/21 09:11:14;;;;;;;0.80;0.75;;;23.40;99.90;;;;;;4793104;29;20501;-91
2022/07/21 09:13:42;;;;;;;1.52;0.80;;;23.60;99.90;;;;;;4789805;29;20257;-91
2022/07/21 09:16:18;;;;;;;1.00;0.80;;;23.70;99.90;;;;;;4777138;29;20147;-92
2022/07/21 09:18:50;;;;;;;1.50;0.90;;;23.70;99.90;;;;;;4780110;29;20065;-93
2022/07/21 09:21:18;;;;;;;;;;;23.70;99.90;;;;;;4811330;29;20054;-91
2022/07/21 09:23:45;;;;;;;1.30;1.08;;;23.70;99.90;;;;;;4805975;29;19971;-92
2022/07/21 09:26:13;;;;;;;1.50;0.75;;;23.80;99.90;;;;;;4807505;29;20463;-91
2022/07/21 09:28:40;;;;;;;1.20;0.73;;;23.90;99.90;;;;;;4806237;29;20088;-92
2022/07/21 09:31:14;;;;;;;0.60;0.60;;;24.10;99.90;;;;;;4773357;29;20078;-92
2022/07/21 09:33:43;;;;;;;2.17;1.15;;;24.20;99.90;;;;;;4792723;29;20055;-92
2022/07/21 09:36:11;;;;;;;1.75;1.20;;;24.10;99.90;;;;;;4778988;29;20485;-90
2022/07/21 09:38:42;;;;;;;1.08;0.70;;;23.90;99.90;;;;;;4794563;29;20435;-92
2022/07/21 09:41:14;;;;;;;0.95;0.70;;;23.90;99.90;;;;;;4792963;29;20069;-92
2022/07/21 09:43:46;;;;;;;0.85;0.70;;;24.00;99.90;;;;;;4770542;29;20057;-94
2022/07/21 09:46:20;;;;;;;2.33;0.70;;;24.20;99.90;;;;;;4777033;29;20088;-92
2022/07/21 09:48:49;;;;;;;1.58;0.90;;;24.30;99.70;;;;;;4796858;29;20059;-93
2022/07/21 09:51:37;;;;;;;1.58;1.00;;;24.50;99.60;;;;;;4814232;29;20133;-91
2022/07/21 09:54:05;;;;;;;1.33;0.82;;;24.40;98.70;;;;;;4785716;29;20058;-93
2022/07/21 09:56:37;;;;;;;2.40;1.10;;;24.40;98.20;;;;;;4792164;29;20090;-91
2022/07/21 09:59:06;;;;;;;1.55;1.10;;;24.30;98.20;;;;;;4792058;29;20070;-93
2022/07/21 10:01:33;;;;;;;1.08;0.80;;;24.30;98.30;;;;;;4776352;29;20131;-92
2022/07/21 10:04:00;;;;;;;1.17;0.90;;;24.50;98.20;;;;;;4789427;29;20379;-92
2022/07/21 10:06:30;;;;;;;1.02;0.77;;;24.70;98.20;;;;;;4778197;29;20062;-92
2022/07/21 10:08:58;;;;;;;0.77;0.77;;;24.80;97.50;;;;;;4782250;29;20062;-92
2022/07/21 10:11:25;;;;;;;1.15;0.57;;;24.90;97.50;;;;;;4808383;29;20066;-92
2022/07/21 10:13:56;;;;;;;1.35;1.13;;;24.90;96.80;;;;;;4794023;29;20063;-91
2022/07/21 10:16:23;;;;;;;1.15;0.80;;;24.90;96.80;;;;;;4781741;29;20066;-93
2022/07/21 10:19:02;;;;;;;1.27;0.70;;;25.20;96.90;;;;;;4780972;29;20526;-91
2022/07/21 10:21:49;;;;;;;1.17;0.90;;;25.40;96.10;;;;;;4807394;29;20108;-91
2022/07/21 10:24:17;;;;;;;1.02;0.70;;;25.60;96.20;;;;;;4798965;29;20061;-92
2022/07/21 10:27:05;;;;;;;3.03;1.20;;;25.80;96.60;;;;;;4796425;29;20058;-91
2022/07/21 10:30:00;;;;;;;1.75;1.10;;;25.30;96.20;;;;;;4798177;29;20051;-90
2022/07/21 10:32:33;;;;;;;0.93;0.75;;;25.10;96.20;;;;;;4763795;29;20058;-91
2022/07/21 10:35:20;;;;;;;1.42;0.88;;;25.20;96.20;;;;;;4786874;29;20369;-91
2022/07/21 10:37:48;;;;;;;0.90;0.77;;;25.40;95.80;;;;;;4792278;29;20059;-92
2022/07/21 10:40:18;;;;;;;1.05;0.88;;;25.50;95.40;;;;;;4765065;29;20055;-91
2022/07/21 10:42:53;;;;;;;1.05;0.80;;;25.80;95.10;;;;;;4795173;29;20088;-91
2022/07/21 10:45:48;;;;;;;1.38;1.00;;;26.10;94.00;;;;;;4764649;29;20438;-90
2022/07/21 10:48:37;;;;;;;0.82;0.50;;;26.60;92.90;;;;;;4774777;29;20058;-91
2022/07/21 10:51:10;;;;;;;0.73;0.60;;;26.90;93.80;;;;;;4787597;29;20062;-91
2022/07/21 10:53:37;;;;;;;0.63;0.63;;;27.00;93.30;;;;;;4763408;29;20299;-91
2022/07/21 10:56:05;;;;;;;1.15;0.90;;;26.80;92.90;;;;;;4788655;29;20059;-91
2022/07/21 10:58:41;;;;;;;1.30;0.70;;;26.70;93.00;;;;;;4789437;29;20054;-91
2022/07/21 11:01:14;;;;;;;0.60;0.60;;;26.90;92.60;;;;;;4773394;29;20066;-91
2022/07/21 11:03:47;;;;;;;1.27;0.80;;;27.10;91.80;;;;;;4793860;29;20059;-92
2022/07/21 11:06:19;;;;;;;1.13;0.80;;;27.20;91.40;;;;;;4774698;29;20531;-90
2022/07/21 11:09:03;;;;;;;0.82;0.70;;;27.40;92.00;;;;;;4794598;29;20059;-90
2022/07/21 11:11:46;;;;;;;1.10;1.00;;;27.50;91.90;;;;;;4827345;29;20092;-91
2022/07/21 11:14:20;;;;;;;1.00;0.80;;;27.60;91.20;;;;;;4791104;29;20153;-91
2022/07/21 11:16:58;;;;;;;0.98;0.88;;;27.50;91.80;;;;;;4778688;29;20059;-96
2022/07/21 11:19:46;;;;;;;1.13;0.75;;;27.70;91.20;;;;;;4786999;29;20062;-91
2022/07/21 11:22:16;;;;;;;0.90;0.60;;;27.90;90.40;;;;;;4801862;29;20089;-93
2022/07/21 11:24:48;;;;;;;1.40;0.88;;;28.10;90.20;;;;;;4796092;29;20046;-92
2022/07/21 11:27:18;;;;;;;1.33;0.77;;;28.00;90.50;;;;;;4779712;29;20414;-91
2022/07/21 11:29:54;;;;;;;0.90;0.70;;;28.20;89.30;;;;;;4783716;29;20162;-91
2022/07/21 11:32:21;;;;;;;1.08;0.88;;;28.20;90.30;;;;;;4781489;29;20089;-92
2022/07/21 11:34:52;;;;;;;0.98;0.90;;;28.30;90.10;;;;;;4793849;29;20054;-92
2022/07/21 11:37:33;;;;;;;0.85;0.70;;;28.30;89.10;;;;;;4796169;29;20058;-93
2022/07/21 11:40:14;;;;;;;1.40;0.80;;;28.30;89.30;;;;;;4775253;29;20096;-92
2022/07/21 11:42:43;;;;;;;1.25;0.85;;;28.20;89.50;;;;;;4799859;29;20054;-92
2022/07/21 11:45:12;;;;;;;1.92;1.20;;;27.90;88.60;;;;;;4795924;29;20145;-92
2022/07/21 11:47:43;;;;;;;0.75;0.63;;;28.10;88.90;;;;;;4781541;29;20055;-92
2022/07/21 11:50:18;;;;;;;1.02;0.70;;;28.30;88.30;;;;;;4812886;29;20069;-93
2022/07/21 11:52:47;;;;;;;0.88;0.80;;;28.40;88.30;;;;;;4811647;29;20062;-92
2022/07/21 11:55:14;;;;;;;1.08;0.70;;;28.40;88.20;;;;;;4781891;29;20069;-94
2022/07/21 11:57:42;;;;;;;0.75;0.75;;;28.30;87.40;;;;;;4781439;29;20054;-92
2022/07/21 12:00:10;;;;;;;1.30;0.90;;;28.40;87.50;;;;;;4790171;29;20068;-91
2022/07/21 12:02:38;;;;;;;1.50;0.82;;;28.50;87.60;;;;;;4805341;29;20061;-94
2022/07/21 12:05:10;;;;;;;1.17;0.63;;;28.50;87.80;;;;;;4761979;29;20081;-93
2022/07/21 12:07:43;;;;;;;1.15;0.90;;;28.60;87.30;;;;;;4762043;29;20088;-91
2022/07/21 12:10:16;;;;;;;1.27;0.77;;;28.70;87.00;;;;;;4781930;29;20066;-95
2022/07/21 12:12:45;;;;;;;0.85;0.70;;;28.70;86.80;;;;;;4804227;29;20062;-91
2022/07/21 12:15:18;;;;;;;0.82;0.73;;;28.70;86.80;;;;;;4812559;29;20057;-91
2022/07/21 12:17:48;;;;;;;0.60;0.50;;;28.60;86.70;;;;;;4811816;29;20077;-95
2022/07/21 12:20:31;;;;;;;1.30;1.00;;;28.50;86.30;;;;;;4811333;29;20066;-92
2022/07/21 12:23:02;;;;;;;0.77;0.70;;;28.40;86.30;;;;;;4811795;29;20054;-93
2022/07/21 12:25:37;;;;;;;1.40;0.70;;;28.40;86.80;;;;;;4799440;29;20390;-93
2022/07/21 12:28:06;;;;;;;1.23;0.80;;;28.60;86.20;;;;;;4793866;29;20146;-92
2022/07/21 12:30:47;;;;;;;0.77;0.77;;;28.70;85.30;;;;;;4810200;29;20064;-92
2022/07/21 12:33:20;;;;;;;1.25;0.70;;;28.90;85.80;;;;;;4802826;29;20055;-94
2022/07/21 12:36:03;;;;;;;1.40;1.00;;;29.10;85.00;;;;;;4793481;29;20069;-92
2022/07/21 12:38:41;;;;;;;1.20;0.80;;;29.00;83.40;;;;;;4792505;29;20487;-91
2022/07/21 12:41:10;;;;;;;1.00;0.77;;;28.90;83.50;;;;;;4795603;29;20160;-92
2022/07/21 12:43:59;;;;;;;1.33;1.00;;;28.60;84.20;;;;;;4801816;29;20407;-91
2022/07/21 12:46:31;;;;;;;1.02;0.90;;;28.20;84.90;;;;;;4764715;29;20165;-94
2022/07/21 12:49:06;;;;;;;1.00;0.90;;;28.00;84.60;;;;;;4767783;29;20051;-91
2022/07/21 12:51:38;;;;;;;1.00;0.70;;;27.90;85.70;;;;;;4815570;29;20061;-91
2022/07/21 12:54:06;;;;;;;1.13;1.00;;;27.90;84.70;;;;;;4814384;29;20065;-91
2022/07/21 12:56:35;;;;;;;0.70;0.70;;;27.70;84.70;;;;;;4810729;29;20406;-92
2022/07/21 12:59:03;;;;;;;0.85;0.70;;;27.70;84.90;;;;;;4809807;29;20068;-91
2022/07/21 13:01:31;;;;;;;1.08;0.98;;;27.70;85.30;;;;;;4811983;29;20490;-91
2022/07/21 13:03:58;;;;;;;1.63;0.90;;;27.60;86.30;;;;;;4786299;29;20057;-91
2022/07/21 13:06:26;;;;;;;1.13;0.88;;;27.50;86.30;;;;;;4776244;29;20643;-91
2022/07/21 13:08:53;;;;;;;2.17;1.10;;;27.40;86.60;;;;;;4774017;29;20471;-93
2022/07/21 13:11:21;;;;;;;1.27;0.98;;;27.20;86.80;;;;;;4771774;29;20050;-91
2022/07/21 13:13:49;;;;;;;1.00;0.90;;;27.00;87.40;;;;;;4788747;29;20103;-91
2022/07/21 13:16:17;;;;;;;1.13;0.88;;;26.90;88.00;;;;;;4776477;29;20054;-91
2022/07/21 13:18:44;;;;;;;1.48;1.10;;;26.80;88.00;;;;;;4778182;29;20157;-90
2022/07/21 13:21:11;;;;;;;1.83;1.20;;;26.80;88.60;;;;;;4776367;29;20066;-92
2022/07/21 13:23:38;;;;;;;1.27;1.08;;;26.50;88.00;;;;;;4778952;29;20517;-93
2022/07/21 13:26:06;;;;;;;2.13;1.42;;;26.40;88.90;;;;;;4779426;29;20574;-91
2022/07/21 13:28:34;;;;;;;1.38;1.08;;;26.30;88.40;;;;;;4781514;29;20062;-93
2022/07/21 13:31:04;;;;;;;1.77;1.27;;;26.30;88.80;;;;;;4762342;29;20061;-92